Time;durP1;ratioP1;P1;durP2;ratioP2;P2;SDS_P1;SDS_P2;PMS_P1;PMS_P2;Temp;Humidity;BMP_temperature;BMP_pressure;BME280_temperature;BME280_humidity;BME280_pressure;Samples;Min_cycle;Max_cycle;Signal;HPM_P1;HPM_P2
2022/04/06 00:01:43;;;;;;;7.13;1.90;;;13.80;59.20;;;;;;5043122;28;20094;-76
2022/04/06 00:04:09;;;;;;;3.88;1.52;;;13.80;59.30;;;;;;5042761;28;20090;-75
2022/04/06 00:06:35;;;;;;;6.40;1.73;;;13.70;59.20;;;;;;5043740;28;20037;-75
2022/04/06 00:09:01;;;;;;;7.47;1.75;;;13.70;59.20;;;;;;5043253;28;20017;-75
2022/04/06 00:11:27;;;;;;;4.95;1.33;;;13.70;59.30;;;;;;5043773;28;20041;-76
2022/04/06 00:13:53;;;;;;;11.57;3.58;;;13.60;59.20;;;;;;5042326;28;20112;-76
2022/04/06 00:16:19;;;;;;;7.65;1.95;;;13.60;59.30;;;;;;5030652;28;20182;-75
2022/04/06 00:18:45;;;;;;;7.53;1.60;;;13.60;59.30;;;;;;5053825;28;20052;-76
2022/04/06 00:21:12;;;;;;;7.65;2.40;;;13.60;59.40;;;;;;5042576;28;20488;-75
2022/04/06 00:23:38;;;;;;;5.32;1.30;;;13.60;59.50;;;;;;5043883;28;20029;-75
2022/04/06 00:26:05;;;;;;;4.90;1.73;;;13.50;59.30;;;;;;5039915;28;20163;-75
2022/04/06 00:28:31;;;;;;;6.85;1.98;;;13.50;59.40;;;;;;5042560;28;20035;-75
2022/04/06 00:30:57;;;;;;;5.03;1.60;;;13.50;59.40;;;;;;5042555;28;20056;-76
2022/04/06 00:33:24;;;;;;;7.30;1.52;;;13.50;59.50;;;;;;5042907;28;20025;-76
2022/04/06 00:35:50;;;;;;;11.35;3.03;;;13.50;59.60;;;;;;5043773;28;20057;-76
2022/04/06 00:38:17;;;;;;;6.93;2.10;;;13.50;59.60;;;;;;5042563;28;20049;-76
2022/04/06 00:40:43;;;;;;;3.75;1.08;;;13.50;59.60;;;;;;5043513;28;20160;-76
2022/04/06 00:43:11;;;;;;;6.55;1.90;;;13.50;59.70;;;;;;5043610;28;20025;-75
2022/04/06 00:45:39;;;;;;;5.05;1.17;;;13.50;59.70;;;;;;5030371;28;20033;-75
2022/04/06 00:48:05;;;;;;;5.75;1.65;;;13.50;59.70;;;;;;5041564;28;20507;-75
2022/04/06 00:50:32;;;;;;;9.02;1.77;;;13.50;59.80;;;;;;5058471;28;20069;-75
2022/04/06 00:52:58;;;;;;;6.93;1.40;;;13.50;59.80;;;;;;5043490;28;20340;-76
2022/04/06 00:55:44;;;;;;;4.68;1.33;;;13.40;59.70;;;;;;5045958;28;20074;-75
2022/04/06 00:58:10;;;;;;;4.85;1.30;;;13.40;59.90;;;;;;5035034;28;20579;-75
2022/04/06 01:00:36;;;;;;;7.22;1.48;;;13.40;59.70;;;;;;5029000;28;20040;-75
2022/04/06 01:03:02;;;;;;;4.82;1.33;;;13.40;59.80;;;;;;5045354;28;20029;-76
2022/04/06 01:05:28;;;;;;;5.97;1.48;;;13.40;59.90;;;;;;5047064;28;20174;-76
2022/04/06 01:07:56;;;;;;;5.57;1.73;;;13.40;59.90;;;;;;5042206;28;20131;-75
2022/04/06 01:10:22;;;;;;;4.03;1.25;;;13.40;60.00;;;;;;5046600;28;20033;-76
2022/04/06 01:12:48;;;;;;;5.13;1.75;;;13.40;60.10;;;;;;5046969;28;20047;-76
2022/04/06 01:15:16;;;;;;;6.18;1.50;;;13.30;59.90;;;;;;5041149;28;20025;-75
2022/04/06 01:17:42;;;;;;;6.43;1.77;;;13.30;60.00;;;;;;5045242;28;20067;-76
2022/04/06 01:20:10;;;;;;;5.75;1.50;;;13.30;60.10;;;;;;5046925;28;20048;-76
2022/04/06 01:22:36;;;;;;;7.53;1.95;;;13.30;60.10;;;;;;5047110;28;20036;-75
2022/04/06 01:25:05;;;;;;;4.47;1.40;;;13.30;60.20;;;;;;5046713;28;20060;-76
2022/04/06 01:27:31;;;;;;;6.82;1.95;;;13.30;60.30;;;;;;5046814;28;20116;-76
2022/04/06 01:29:57;;;;;;;7.25;1.77;;;13.30;60.30;;;;;;5045981;28;20083;-76
2022/04/06 01:32:25;;;;;;;5.07;1.50;;;13.30;60.40;;;;;;5043718;28;20036;-76
2022/04/06 01:34:53;;;;;;;7.22;2.30;;;13.20;60.20;;;;;;5046002;28;20090;-76
2022/04/06 01:37:20;;;;;;;6.45;1.40;;;13.20;60.30;;;;;;5046753;28;20045;-76
2022/04/06 01:39:47;;;;;;;7.30;2.13;;;13.20;60.30;;;;;;5044193;28;20558;-75
2022/04/06 01:42:15;;;;;;;5.63;1.17;;;13.20;60.40;;;;;;5023864;28;20059;-75
2022/04/06 01:44:44;;;;;;;9.27;1.75;;;13.20;60.40;;;;;;5030172;28;20604;-76
2022/04/06 01:47:10;;;;;;;4.85;2.05;;;13.20;60.40;;;;;;5046565;28;20048;-76
2022/04/06 01:52:21;;;;;;;7.57;1.38;;;13.20;60.50;;;;;;5049588;28;20037;-75
2022/04/06 01:54:50;;;;;;;4.68;1.17;;;13.20;60.50;;;;;;5016222;28;20035;-76
2022/04/06 01:57:17;;;;;;;5.82;1.25;;;13.20;60.50;;;;;;5035604;28;20040;-76
2022/04/06 01:59:43;;;;;;;5.50;1.15;;;13.20;60.60;;;;;;5062215;28;20044;-76
2022/04/06 02:02:12;;;;;;;4.82;1.60;;;13.20;60.60;;;;;;5055894;28;20083;-76
2022/04/06 02:04:39;;;;;;;5.75;1.27;;;13.20;60.70;;;;;;5063565;28;20029;-76
2022/04/06 02:07:05;;;;;;;5.88;1.42;;;13.20;60.70;;;;;;5055877;28;20036;-76
2022/04/06 02:09:31;;;;;;;3.22;0.95;;;13.20;60.80;;;;;;5052564;28;20608;-76
2022/04/06 02:12:00;;;;;;;4.38;1.40;;;13.20;60.90;;;;;;5052260;28;20037;-76
2022/04/06 02:14:26;;;;;;;5.63;1.13;;;13.10;60.70;;;;;;5052799;28;20025;-76
2022/04/06 02:16:53;;;;;;;5.40;1.33;;;13.10;60.80;;;;;;5032065;28;20253;-76
2022/04/06 02:19:19;;;;;;;4.55;1.08;;;13.10;60.90;;;;;;5048587;28;20064;-75
2022/04/06 02:21:45;;;;;;;7.90;1.60;;;13.10;61.00;;;;;;5039507;28;20063;-75
2022/04/06 02:24:10;;;;;;;2.95;0.73;;;13.10;61.00;;;;;;5049471;28;20140;-75
2022/04/06 02:26:36;;;;;;;3.67;1.10;;;13.10;61.10;;;;;;5044574;28;20136;-76
2022/04/06 02:29:03;;;;;;;4.80;1.60;;;13.10;61.20;;;;;;5043294;28;20149;-75
2022/04/06 02:31:29;;;;;;;3.03;1.25;;;13.10;61.30;;;;;;5047679;28;20040;-76
2022/04/06 02:33:55;;;;;;;3.30;0.77;;;13.00;61.10;;;;;;5048286;28;20115;-76
2022/04/06 02:36:21;;;;;;;3.97;1.38;;;13.00;61.20;;;;;;5048233;28;20132;-76
2022/04/06 02:38:47;;;;;;;3.42;1.00;;;13.00;61.30;;;;;;5048243;28;20527;-76
2022/04/06 02:41:13;;;;;;;4.20;1.00;;;13.00;61.40;;;;;;5048220;28;20041;-76
2022/04/06 02:43:39;;;;;;;3.80;1.05;;;13.00;61.50;;;;;;5048905;28;20517;-76
2022/04/06 02:46:06;;;;;;;4.30;1.33;;;13.00;61.60;;;;;;5029557;28;20588;-75
2022/04/06 02:48:31;;;;;;;5.22;1.55;;;13.00;61.60;;;;;;5048503;28;20110;-76
2022/04/06 02:50:57;;;;;;;2.67;0.80;;;13.00;61.70;;;;;;5047886;28;20483;-76
2022/04/06 02:53:23;;;;;;;1.92;0.80;;;12.90;61.60;;;;;;5036118;28;20060;-76
2022/04/06 02:55:49;;;;;;;2.40;0.80;;;12.90;61.60;;;;;;5048025;28;20037;-77
2022/04/06 02:58:15;;;;;;;3.35;0.80;;;12.90;61.70;;;;;;5030023;28;20041;-76
2022/04/06 03:00:41;;;;;;;3.10;0.60;;;12.90;61.70;;;;;;5046955;28;20056;-75
2022/04/06 03:03:07;;;;;;;4.38;1.42;;;12.90;61.80;;;;;;5047098;28;20063;-75
2022/04/06 03:05:33;;;;;;;10.60;2.40;;;12.90;61.90;;;;;;5047570;28;20486;-76
2022/04/06 03:07:59;;;;;;;3.10;0.95;;;12.90;61.90;;;;;;5030369;28;20035;-75
2022/04/06 03:10:26;;;;;;;2.88;0.98;;;12.90;61.90;;;;;;5038072;28;20107;-75
2022/04/06 03:12:52;;;;;;;3.90;0.77;;;12.90;62.00;;;;;;5034843;28;20124;-76
2022/04/06 03:15:18;;;;;;;3.42;1.00;;;12.90;62.00;;;;;;5046784;28;20036;-75
2022/04/06 03:17:44;;;;;;;2.50;0.63;;;12.90;62.10;;;;;;5046138;28;20051;-76
2022/04/06 03:20:14;;;;;;;5.45;1.75;;;12.80;62.00;;;;;;5047005;28;20030;-75
2022/04/06 03:22:41;;;;;;;2.38;0.75;;;12.80;62.00;;;;;;5048174;28;20033;-76
2022/04/06 03:25:08;;;;;;;1.73;0.70;;;12.80;62.10;;;;;;5012895;28;20025;-76
2022/04/06 03:27:35;;;;;;;1.75;0.63;;;12.80;62.20;;;;;;5046956;28;20067;-76
2022/04/06 03:30:02;;;;;;;1.98;0.73;;;12.80;62.30;;;;;;5047839;28;20060;-75
2022/04/06 03:32:28;;;;;;;1.70;0.68;;;12.80;62.40;;;;;;5046642;28;20033;-75
2022/04/06 03:34:54;;;;;;;4.75;1.25;;;12.80;62.40;;;;;;5029119;28;20024;-75
2022/04/06 03:37:20;;;;;;;3.40;0.70;;;12.70;62.30;;;;;;5048116;28;20542;-76
2022/04/06 03:39:46;;;;;;;2.85;0.68;;;12.70;62.40;;;;;;5031496;28;20045;-76
2022/04/06 03:42:12;;;;;;;2.38;0.80;;;12.70;62.50;;;;;;5037480;28;20127;-75
2022/04/06 03:44:38;;;;;;;3.10;1.27;;;12.70;62.50;;;;;;5047344;28;20108;-75
2022/04/06 03:47:04;;;;;;;3.33;0.93;;;12.70;62.60;;;;;;5036607;28;20092;-75
2022/04/06 03:49:31;;;;;;;3.03;0.70;;;12.70;62.70;;;;;;5049156;28;20083;-75
2022/04/06 03:51:57;;;;;;;2.50;0.60;;;12.70;62.80;;;;;;5050743;28;20124;-76
2022/04/06 03:54:23;;;;;;;3.20;1.08;;;12.70;62.80;;;;;;5050028;28;20112;-76
2022/04/06 03:56:48;;;;;;;4.18;0.77;;;12.70;62.90;;;;;;5050628;28;20605;-75
2022/04/06 03:59:14;;;;;;;2.88;0.70;;;12.70;63.00;;;;;;5050408;28;20080;-76
2022/04/06 04:01:40;;;;;;;2.35;0.50;;;12.70;63.00;;;;;;5047637;28;20029;-75
2022/04/06 04:04:06;;;;;;;2.15;0.40;;;12.70;63.00;;;;;;5031690;28;20033;-74
2022/04/06 04:06:32;;;;;;;2.22;0.73;;;12.70;63.10;;;;;;5049463;28;20036;-76
2022/04/06 04:08:59;;;;;;;3.58;0.60;;;12.60;62.90;;;;;;5047493;28;20048;-76
2022/04/06 04:11:24;;;;;;;1.13;0.35;;;12.60;63.00;;;;;;5048756;28;20462;-76
2022/04/06 04:13:50;;;;;;;5.18;1.17;;;12.70;63.20;;;;;;5048604;28;20025;-75
2022/04/06 04:16:16;;;;;;;2.05;0.57;;;12.70;63.30;;;;;;5046475;28;20037;-76
2022/04/06 04:18:42;;;;;;;2.63;0.38;;;12.70;63.30;;;;;;5046897;28;20037;-76
2022/04/06 04:23:52;;;;;;;2.75;0.65;;;12.70;63.40;;;;;;5044974;28;20041;-76
2022/04/06 04:26:18;;;;;;;4.03;0.75;;;12.70;63.50;;;;;;5045095;28;20021;-76
2022/04/06 04:28:44;;;;;;;4.30;0.88;;;12.60;63.30;;;;;;5047710;28;20032;-76
2022/04/06 04:31:10;;;;;;;3.50;1.27;;;12.60;63.40;;;;;;5049192;28;20033;-76
2022/04/06 04:33:36;;;;;;;4.50;1.48;;;12.60;63.40;;;;;;5050100;28;20033;-76
2022/04/06 04:36:02;;;;;;;5.47;1.02;;;12.60;63.50;;;;;;5051079;28;20033;-76
2022/04/06 04:38:28;;;;;;;2.72;1.00;;;12.60;63.50;;;;;;5050288;28;20065;-75
2022/04/06 04:40:54;;;;;;;5.88;0.98;;;12.50;63.40;;;;;;5050959;28;20024;-76
2022/04/06 04:43:20;;;;;;;3.80;1.33;;;12.50;63.50;;;;;;5050403;28;20181;-75
2022/04/06 04:45:46;;;;;;;4.15;0.90;;;12.60;63.70;;;;;;5050637;28;20074;-76
2022/04/06 04:48:12;;;;;;;9.25;2.65;;;12.60;63.80;;;;;;5045495;28;20483;-76
2022/04/06 04:50:38;;;;;;;3.58;1.00;;;12.50;63.60;;;;;;5045140;28;20036;-76
2022/04/06 04:53:05;;;;;;;4.40;1.33;;;12.60;63.90;;;;;;5047039;28;20043;-76
2022/04/06 04:55:32;;;;;;;3.95;0.80;;;12.60;63.90;;;;;;5045528;28;20646;-75
2022/04/06 04:57:59;;;;;;;3.08;0.90;;;12.60;64.00;;;;;;5028722;28;20432;-75
2022/04/06 05:00:26;;;;;;;5.43;1.48;;;12.60;64.00;;;;;;5046163;28;20033;-75
2022/04/06 05:02:51;;;;;;;3.05;1.23;;;12.60;64.00;;;;;;5045584;28;20061;-76
2022/04/06 05:05:17;;;;;;;4.63;1.08;;;12.60;64.10;;;;;;5028404;28;20076;-76
2022/04/06 05:07:43;;;;;;;6.47;1.30;;;12.60;64.10;;;;;;5032236;28;20032;-76
2022/04/06 05:10:10;;;;;;;3.95;1.13;;;12.60;64.10;;;;;;5035541;28;20029;-76
2022/04/06 05:12:36;;;;;;;7.03;2.08;;;12.60;64.10;;;;;;5028707;28;20029;-77
2022/04/06 05:15:04;;;;;;;4.82;0.80;;;12.60;64.20;;;;;;5037563;28;20121;-76
2022/04/06 05:17:30;;;;;;;5.35;1.15;;;12.70;64.40;;;;;;5026935;28;20072;-76
2022/04/06 05:19:57;;;;;;;3.05;0.88;;;12.60;64.20;;;;;;5048099;28;20029;-77
2022/04/06 05:22:23;;;;;;;5.18;1.40;;;12.60;64.20;;;;;;5044946;28;20021;-77
2022/04/06 05:24:49;;;;;;;3.38;1.42;;;12.60;64.30;;;;;;5045668;28;20029;-76
2022/04/06 05:27:14;;;;;;;5.20;1.10;;;12.60;64.30;;;;;;5039082;28;20569;-76
2022/04/06 05:29:42;;;;;;;4.57;1.58;;;12.60;64.30;;;;;;5045138;28;20060;-77
2022/04/06 05:32:08;;;;;;;5.70;0.93;;;12.60;64.40;;;;;;5050300;28;20060;-75
2022/04/06 05:34:35;;;;;;;3.60;0.93;;;12.60;64.40;;;;;;5046020;28;20032;-76
2022/04/06 05:37:04;;;;;;;2.25;0.60;;;12.60;64.40;;;;;;5030604;28;20044;-76
2022/04/06 05:39:30;;;;;;;6.72;1.23;;;12.60;64.50;;;;;;5044682;28;20063;-76
2022/04/06 05:41:56;;;;;;;4.10;1.42;;;12.60;64.50;;;;;;5044348;28;20475;-76
2022/04/06 05:44:22;;;;;;;7.53;1.45;;;12.60;64.50;;;;;;5045153;28;20037;-76
2022/04/06 05:46:48;;;;;;;3.50;0.95;;;12.60;64.50;;;;;;5014366;28;20571;-75
2022/04/06 05:49:14;;;;;;;4.07;0.90;;;12.60;64.50;;;;;;5035545;28;20128;-75
2022/04/06 05:51:40;;;;;;;4.65;1.05;;;12.60;64.50;;;;;;5025235;28;20037;-76
2022/04/06 05:54:05;;;;;;;6.70;1.67;;;12.60;64.60;;;;;;5044217;28;20041;-76
2022/04/06 05:56:32;;;;;;;2.63;0.90;;;12.60;64.60;;;;;;5036404;28;20432;-76
2022/04/06 05:58:59;;;;;;;4.10;1.00;;;12.60;64.60;;;;;;5027307;28;20052;-76
2022/04/06 06:01:24;;;;;;;5.25;1.10;;;12.60;64.60;;;;;;5014981;28;20067;-75
2022/04/06 06:03:50;;;;;;;5.03;1.30;;;12.60;64.60;;;;;;5047365;28;20068;-75
2022/04/06 06:06:16;;;;;;;5.40;1.30;;;12.60;64.60;;;;;;5026431;28;20037;-75
2022/04/06 06:08:42;;;;;;;8.30;2.22;;;12.60;64.70;;;;;;5042969;28;20368;-76
2022/04/06 06:11:08;;;;;;;7.88;1.40;;;12.70;64.90;;;;;;5026328;28;20040;-75
2022/04/06 06:13:34;;;;;;;9.45;2.00;;;12.70;64.90;;;;;;5025487;28;20036;-76
2022/04/06 06:16:00;;;;;;;7.30;1.50;;;12.60;65.40;;;;;;5042310;28;20029;-76
2022/04/06 06:18:27;;;;;;;7.10;1.95;;;12.60;65.00;;;;;;5039294;28;20045;-76
2022/04/06 06:20:56;;;;;;;5.40;1.30;;;12.60;65.10;;;;;;5025896;28;20029;-74
2022/04/06 06:23:22;;;;;;;9.85;1.58;;;12.70;65.30;;;;;;5042103;28;20037;-76
2022/04/06 06:25:47;;;;;;;7.57;2.45;;;12.60;65.10;;;;;;5033475;28;20025;-75
2022/04/06 06:28:13;;;;;;;7.65;2.58;;;12.70;65.30;;;;;;5038148;28;20031;-74
2022/04/06 06:30:39;;;;;;;10.60;1.55;;;12.70;65.30;;;;;;5036330;28;20483;-75
2022/04/06 06:33:05;;;;;;;6.30;2.75;;;12.70;65.30;;;;;;5040694;28;20138;-75
2022/04/06 06:35:31;;;;;;;5.30;1.38;;;12.70;65.30;;;;;;5043688;28;20025;-75
2022/04/06 06:37:57;;;;;;;5.20;1.00;;;12.70;65.30;;;;;;5050967;28;20136;-74
2022/04/06 06:40:25;;;;;;;6.20;1.55;;;12.70;65.30;;;;;;5042300;28;20064;-75
2022/04/06 06:42:52;;;;;;;8.18;1.48;;;12.70;65.30;;;;;;5041193;28;20032;-77
2022/04/06 06:45:18;;;;;;;9.90;1.90;;;12.70;65.20;;;;;;5051944;28;20522;-76
2022/04/06 06:47:45;;;;;;;5.32;1.50;;;12.80;65.40;;;;;;5035018;28;20040;-76
2022/04/06 06:50:13;;;;;;;5.00;1.00;;;12.80;65.30;;;;;;5043931;28;20097;-77
2022/04/06 06:52:39;;;;;;;6.63;1.20;;;12.80;65.30;;;;;;5052663;28;20114;-77
2022/04/06 06:55:09;;;;;;;4.07;1.63;;;12.80;65.20;;;;;;5041835;28;20040;-77
2022/04/06 06:57:35;;;;;;;2.75;1.10;;;12.90;65.40;;;;;;5040262;28;20496;-73
2022/04/06 07:00:03;;;;;;;4.60;0.90;;;12.90;65.30;;;;;;5023486;28;20031;-75
2022/04/06 07:02:29;;;;;;;7.55;1.80;;;12.90;65.20;;;;;;5036919;28;20040;-73
2022/04/06 07:04:55;;;;;;;5.45;1.58;;;13.00;65.30;;;;;;5042238;28;20033;-74
2022/04/06 07:07:21;;;;;;;3.75;1.55;;;13.00;65.30;;;;;;5020488;28;20392;-76
2022/04/06 07:09:47;;;;;;;5.65;1.08;;;13.10;65.30;;;;;;5052373;28;20036;-76
2022/04/06 07:12:13;;;;;;;5.45;1.60;;;13.10;65.30;;;;;;5046313;28;20550;-77
2022/04/06 07:14:39;;;;;;;7.57;1.58;;;13.10;65.20;;;;;;5043914;28;20163;-76
2022/04/06 07:17:05;;;;;;;7.70;1.50;;;13.20;65.20;;;;;;5039293;28;20064;-75
2022/04/06 07:19:31;;;;;;;5.90;2.30;;;13.30;65.30;;;;;;5039838;28;20423;-76
2022/04/06 07:21:57;;;;;;;8.10;1.30;;;13.30;65.10;;;;;;5035114;28;20033;-75
2022/04/06 07:24:23;;;;;;;3.97;1.40;;;13.40;65.20;;;;;;5043159;28;20033;-75
2022/04/06 07:26:48;;;;;;;5.53;1.33;;;13.50;65.30;;;;;;5044831;28;20087;-76
2022/04/06 07:29:15;;;;;;;5.82;1.20;;;13.60;65.30;;;;;;5041615;28;20028;-75
2022/04/06 07:31:42;;;;;;;5.75;1.50;;;13.70;65.40;;;;;;5044795;28;20095;-75
2022/04/06 07:34:09;;;;;;;4.32;1.10;;;13.70;65.10;;;;;;5044354;28;20326;-75
2022/04/06 07:36:36;;;;;;;5.60;1.38;;;13.70;65.00;;;;;;5037827;28;20098;-75
2022/04/06 07:39:03;;;;;;;8.65;1.20;;;13.80;65.10;;;;;;5042196;28;20075;-75
2022/04/06 07:41:30;;;;;;;5.00;0.93;;;13.80;64.90;;;;;;5042162;28;20025;-74
2022/04/06 07:43:56;;;;;;;6.85;1.30;;;13.90;64.90;;;;;;5026694;28;20120;-75
2022/04/06 07:46:22;;;;;;;6.22;1.38;;;14.00;65.00;;;;;;5023619;28;20111;-75
2022/04/06 07:48:47;;;;;;;7.55;1.67;;;14.10;65.00;;;;;;5009434;28;20302;-74
2022/04/06 07:51:13;;;;;;;9.30;1.80;;;14.10;64.80;;;;;;5017269;28;20115;-75
2022/04/06 07:53:39;;;;;;;8.32;1.85;;;14.10;64.70;;;;;;5051202;28;20391;-75
2022/04/06 07:56:06;;;;;;;7.18;1.70;;;14.10;64.60;;;;;;5056262;28;20041;-73
2022/04/06 07:58:34;;;;;;;8.18;2.05;;;14.10;64.50;;;;;;5037187;28;20052;-73
2022/04/06 08:01:02;;;;;;;6.88;1.55;;;14.20;64.60;;;;;;5040340;28;20499;-73
2022/04/06 08:03:29;;;;;;;9.02;3.17;;;14.30;64.60;;;;;;5039589;28;20029;-73
2022/04/06 08:05:56;;;;;;;4.70;1.58;;;14.30;64.50;;;;;;5052206;28;20028;-74
2022/04/06 08:08:22;;;;;;;8.48;2.03;;;14.40;64.50;;;;;;5048469;28;20048;-75
2022/04/06 08:10:48;;;;;;;7.38;1.20;;;14.40;64.30;;;;;;5036773;28;20059;-75
2022/04/06 08:13:14;;;;;;;10.38;3.05;;;14.50;64.40;;;;;;5055245;28;20302;-75
2022/04/06 08:15:40;;;;;;;5.53;1.40;;;14.60;64.40;;;;;;5048058;28;20546;-74
2022/04/06 08:18:06;;;;;;;5.72;1.35;;;14.70;65.00;;;;;;5052432;28;20075;-74
2022/04/06 08:20:33;;;;;;;7.63;1.95;;;14.80;64.60;;;;;;5049778;28;20037;-74
2022/04/06 08:22:59;;;;;;;7.28;1.98;;;14.90;64.70;;;;;;5053960;28;20029;-75
2022/04/06 08:25:26;;;;;;;9.93;2.38;;;14.90;64.50;;;;;;5047386;28;20658;-74
2022/04/06 08:27:52;;;;;;;11.27;2.35;;;15.10;64.70;;;;;;5042471;28;20044;-74
2022/04/06 08:30:20;;;;;;;4.55;1.50;;;15.10;64.50;;;;;;5027062;28;20023;-73
2022/04/06 08:32:46;;;;;;;8.93;1.65;;;15.20;64.50;;;;;;5047066;28;20117;-75
2022/04/06 08:35:13;;;;;;;5.68;1.58;;;15.30;64.50;;;;;;5038039;28;20025;-75
2022/04/06 08:37:39;;;;;;;7.40;1.63;;;15.40;64.50;;;;;;5052704;28;20030;-75
2022/04/06 08:40:10;;;;;;;7.57;1.80;;;15.40;64.30;;;;;;5030330;28;20051;-75
2022/04/06 08:42:37;;;;;;;7.35;1.52;;;15.50;64.40;;;;;;5048386;28;20042;-75
2022/04/06 08:45:05;;;;;;;5.70;1.27;;;15.50;64.70;;;;;;5048454;28;20163;-75
2022/04/06 08:47:32;;;;;;;10.25;1.90;;;15.60;64.30;;;;;;5033083;28;20037;-74
2022/04/06 08:49:59;;;;;;;3.97;1.08;;;15.70;64.30;;;;;;5037293;28;20064;-74
2022/04/06 08:52:25;;;;;;;6.50;1.70;;;15.70;64.10;;;;;;5034852;28;21063;-74
2022/04/06 08:54:51;;;;;;;5.90;1.98;;;15.70;64.00;;;;;;5032260;28;20072;-75
2022/04/06 08:57:18;;;;;;;4.75;1.30;;;15.80;64.10;;;;;;5045951;28;20072;-75
2022/04/06 08:59:47;;;;;;;6.35;1.27;;;15.90;64.10;;;;;;5046123;28;20028;-75
2022/04/06 09:02:17;;;;;;;6.95;2.67;;;16.00;64.00;;;;;;5047446;28;20064;-73
2022/04/06 09:04:43;;;;;;;5.47;1.80;;;16.10;63.90;;;;;;5050393;28;20059;-74
2022/04/06 09:07:10;;;;;;;7.32;1.30;;;16.10;63.70;;;;;;5050106;28;20496;-75
2022/04/06 09:09:37;;;;;;;4.90;1.00;;;16.30;64.00;;;;;;5051084;28;20039;-75
2022/04/06 09:12:08;;;;;;;5.13;1.90;;;16.40;64.20;;;;;;5033278;28;20148;-77
2022/04/06 09:14:34;;;;;;;6.25;2.22;;;16.60;64.50;;;;;;5062400;28;20093;-77
2022/04/06 09:17:07;;;;;;;4.70;1.20;;;16.80;64.60;;;;;;5037360;28;20124;-76
2022/04/06 09:19:45;;;;;;;;;;;17.00;64.80;;;;;;5043544;28;20041;-76
2022/04/06 09:22:11;;;;;;;7.43;2.42;;;17.20;64.70;;;;;;5025347;28;19916;-77
2022/04/06 09:24:37;;;;;;;5.30;1.30;;;17.40;64.60;;;;;;5028340;28;20033;-79
2022/04/06 09:27:04;;;;;;;7.15;1.65;;;17.60;64.70;;;;;;5045310;28;20027;-78
2022/04/06 09:29:31;;;;;;;7.38;2.22;;;17.80;64.70;;;;;;5042392;28;20277;-78
2022/04/06 09:32:10;;;;;;;6.85;1.48;;;18.10;64.90;;;;;;5050395;28;20102;-79
2022/04/06 09:34:38;;;;;;;5.55;1.52;;;18.30;64.80;;;;;;5051684;28;20032;-79
2022/04/06 09:37:31;;;;;;;6.47;2.22;;;18.50;64.70;;;;;;5044127;28;20141;-78
2022/04/06 09:40:07;;;;;;;4.40;1.60;;;18.70;64.60;;;;;;5048935;28;20150;-80
2022/04/06 09:42:33;;;;;;;4.97;1.73;;;18.80;64.50;;;;;;5012115;28;20037;-78
2022/04/06 09:47:51;;;;;;;4.05;0.95;;;19.10;64.50;;;;;;5050271;28;20024;-75
2022/04/06 09:50:26;;;;;;;4.28;0.90;;;19.30;64.50;;;;;;5044505;28;20037;-77
2022/04/06 09:52:53;;;;;;;3.20;1.40;;;19.40;64.30;;;;;;5044158;28;20029;-74
2022/04/06 09:55:21;;;;;;;4.10;1.48;;;19.50;64.20;;;;;;5046472;28;20231;-76
2022/04/06 09:57:50;;;;;;;8.05;1.80;;;19.60;64.10;;;;;;5046644;28;20059;-75
2022/04/06 10:00:20;;;;;;;6.10;1.27;;;19.70;63.90;;;;;;5042513;28;20048;-76
2022/04/06 10:03:03;;;;;;;5.90;1.95;;;19.80;63.70;;;;;;5039539;28;20033;-77
2022/04/06 10:05:31;;;;;;;4.65;1.00;;;19.80;63.30;;;;;;5030192;28;20028;-76
2022/04/06 10:08:04;;;;;;;3.67;0.90;;;19.90;63.30;;;;;;5044779;28;20040;-77
2022/04/06 10:10:31;;;;;;;3.90;1.10;;;19.90;63.00;;;;;;5042189;28;20029;-77
2022/04/06 10:12:58;;;;;;;10.18;2.20;;;19.90;62.90;;;;;;5036315;28;20072;-77
2022/04/06 10:15:27;;;;;;;8.13;1.20;;;19.80;62.70;;;;;;5040224;28;20021;-76
2022/04/06 10:17:53;;;;;;;7.05;1.50;;;19.80;62.70;;;;;;5042980;28;20079;-77
2022/04/06 10:20:24;;;;;;;3.90;1.27;;;19.90;62.80;;;;;;5046819;28;20506;-77
2022/04/06 10:23:05;;;;;;;4.60;1.42;;;20.00;62.80;;;;;;5031139;28;20040;-76
2022/04/06 10:26:05;;;;;;;3.28;0.90;;;20.10;62.70;;;;;;5040018;28;20048;-77
2022/04/06 10:28:33;;;;;;;4.03;0.80;;;20.30;62.60;;;;;;5041905;28;20116;-76
2022/04/06 10:31:19;;;;;;;6.40;1.00;;;20.50;62.60;;;;;;5011483;28;20033;-76
2022/04/06 10:33:46;;;;;;;5.13;1.25;;;20.60;62.20;;;;;;5048809;28;20048;-76
2022/04/06 10:36:17;;;;;;;7.55;1.38;;;20.70;62.10;;;;;;5055464;28;20072;-78
2022/04/06 10:39:10;;;;;;;4.90;1.40;;;20.80;62.10;;;;;;5059462;28;20051;-76
2022/04/06 10:41:39;;;;;;;5.30;1.33;;;20.80;61.90;;;;;;5059660;28;20040;-75
2022/04/06 10:44:05;;;;;;;6.22;1.92;;;20.90;62.10;;;;;;5042599;28;20049;-76
2022/04/06 10:46:39;;;;;;;3.33;1.23;;;20.90;61.90;;;;;;5059686;28;20119;-77
2022/04/06 10:49:13;;;;;;;2.55;0.90;;;20.90;62.00;;;;;;5058324;28;20028;-77
2022/04/06 10:51:48;;;;;;;3.22;0.90;;;20.90;61.40;;;;;;5053362;28;20082;-76
2022/04/06 10:54:14;;;;;;;4.15;1.52;;;20.90;61.40;;;;;;5056824;28;20085;-76
2022/04/06 10:56:49;;;;;;;5.63;1.20;;;20.90;61.40;;;;;;5059237;28;20064;-77
2022/04/06 10:59:19;;;;;;;7.43;1.77;;;20.90;61.10;;;;;;5059823;28;20056;-76
2022/04/06 11:01:48;;;;;;;4.38;1.00;;;20.90;61.10;;;;;;5058387;28;20017;-76
2022/04/06 11:04:20;;;;;;;4.53;1.20;;;20.90;61.00;;;;;;5058836;28;20039;-76
2022/04/06 11:06:53;;;;;;;2.88;0.93;;;21.00;61.00;;;;;;5058090;28;20340;-75
2022/04/06 11:12:28;;;;;;;4.60;1.05;;;21.20;61.00;;;;;;5057601;28;20021;-76
2022/04/06 11:15:01;;;;;;;2.78;0.95;;;21.30;60.80;;;;;;5056432;28;20259;-77
2022/04/06 11:17:42;;;;;;;5.03;1.67;;;21.40;60.60;;;;;;5045092;28;20125;-74
2022/04/06 11:20:20;;;;;;;4.93;1.60;;;21.50;60.50;;;;;;5056821;28;20142;-76
2022/04/06 11:22:53;;;;;;;6.05;1.15;;;21.60;60.40;;;;;;5058367;28;20036;-76
2022/04/06 11:25:22;;;;;;;4.97;1.27;;;21.70;60.30;;;;;;5059700;28;20036;-76
2022/04/06 11:27:50;;;;;;;5.72;1.55;;;21.80;60.30;;;;;;5056160;28;20120;-77
2022/04/06 11:30:21;;;;;;;2.92;0.85;;;21.90;60.10;;;;;;5051919;28;20045;-76
2022/04/06 11:32:52;;;;;;;3.10;0.88;;;22.00;59.60;;;;;;5053298;28;20029;-76
2022/04/06 11:35:19;;;;;;;4.53;1.67;;;22.10;59.40;;;;;;5052567;28;20056;-76
2022/04/06 11:37:48;;;;;;;3.97;1.13;;;22.20;59.30;;;;;;5053847;28;20033;-76
2022/04/06 11:40:22;;;;;;;6.70;1.10;;;22.30;59.10;;;;;;5058977;28;20056;-76
2022/04/06 11:42:49;;;;;;;4.18;0.90;;;22.30;58.80;;;;;;5057255;28;20042;-76
2022/04/06 11:45:29;;;;;;;7.40;2.00;;;22.40;59.00;;;;;;5057885;28;20404;-76
2022/04/06 11:48:06;;;;;;;6.32;1.42;;;22.50;58.90;;;;;;5056598;28;20254;-76
2022/04/06 11:50:34;;;;;;;5.15;1.00;;;22.50;58.60;;;;;;5054296;28;20025;-75
2022/04/06 11:53:12;;;;;;;4.40;0.90;;;22.50;58.60;;;;;;5047925;28;20060;-76
2022/04/06 11:55:48;;;;;;;4.28;1.10;;;22.30;58.10;;;;;;5049646;28;20163;-76
2022/04/06 11:58:30;;;;;;;2.10;1.15;;;22.10;57.90;;;;;;5057006;28;20055;-75
2022/04/06 12:01:21;;;;;;;4.70;2.05;;;21.80;57.70;;;;;;5038703;28;20047;-74
2022/04/06 12:03:47;;;;;;;3.53;0.80;;;21.60;58.50;;;;;;5046351;28;20029;-76
2022/04/06 12:06:15;;;;;;;3.20;0.90;;;21.50;58.30;;;;;;5040666;28;20040;-78
2022/04/06 12:08:47;;;;;;;3.72;1.02;;;21.30;58.20;;;;;;5026379;28;20044;-77
2022/04/06 12:11:14;;;;;;;3.50;1.13;;;21.10;58.10;;;;;;5047272;28;20454;-77
2022/04/06 12:13:43;;;;;;;2.30;0.85;;;20.90;58.20;;;;;;5053727;28;20543;-76
2022/04/06 12:16:10;;;;;;;1.38;0.68;;;20.70;58.20;;;;;;5048883;28;20029;-79
2022/04/06 12:18:40;;;;;;;2.95;1.02;;;20.50;58.20;;;;;;5030330;28;20401;-77
2022/04/06 12:21:29;;;;;;;3.70;0.70;;;20.40;58.60;;;;;;5048005;28;20174;-78
2022/04/06 12:23:55;;;;;;;4.28;1.42;;;20.30;58.80;;;;;;5050823;28;20021;-78
2022/04/06 12:26:22;;;;;;;2.30;0.57;;;20.20;58.80;;;;;;5048168;28;20049;-79
2022/04/06 12:28:56;;;;;;;2.35;0.63;;;20.20;58.90;;;;;;5032143;28;20032;-78
2022/04/06 12:31:35;;;;;;;3.13;0.98;;;20.10;58.80;;;;;;5055594;28;20100;-77
2022/04/06 12:34:01;;;;;;;1.45;0.50;;;20.00;58.90;;;;;;5057979;28;20100;-75
2022/04/06 12:36:32;;;;;;;2.13;0.60;;;20.00;59.10;;;;;;5035384;28;20193;-74
2022/04/06 12:39:08;;;;;;;2.72;0.50;;;20.10;59.30;;;;;;5049129;28;20053;-76
2022/04/06 12:41:51;;;;;;;3.05;0.70;;;20.10;59.00;;;;;;5046561;28;20041;-77
2022/04/06 12:44:17;;;;;;;1.52;0.50;;;20.20;59.10;;;;;;5057331;28;20039;-77
2022/04/06 12:46:44;;;;;;;1.80;0.30;;;20.20;59.00;;;;;;5059629;28;20035;-78
2022/04/06 12:49:37;;;;;;;1.30;0.70;;;20.20;59.00;;;;;;5055474;28;20129;-76
2022/04/06 12:52:20;;;;;;;5.15;0.57;;;20.10;58.80;;;;;;5029841;28;20384;-76
2022/04/06 12:54:49;;;;;;;3.30;1.30;;;20.10;59.00;;;;;;5049362;28;20545;-77
2022/04/06 12:57:19;;;;;;;2.08;0.52;;;20.10;59.00;;;;;;5026211;28;20029;-75
2022/04/06 12:59:48;;;;;;;2.33;0.80;;;20.00;58.80;;;;;;5046821;28;20434;-74
2022/04/06 13:02:35;;;;;;;2.85;0.63;;;20.10;59.10;;;;;;5039408;28;20032;-75
2022/04/06 13:05:02;;;;;;;4.68;0.93;;;20.10;59.10;;;;;;5046117;28;20120;-75